Lake Kiowa, Texas
Current Conditions -  °F | °C
As of 4:15 AM on Saturday 20 Dec 2014 (Local Time) from KGLE Reporting Station
Overcast Overcast  
Wind Chill: 38°   Ceiling: 1400
Heat Index: 42°   Visibility: 7mi
Dew Point: 39°   Wind: 6mph
Humidity: 90%   Direction: 340°NNW
Pressure: 30.24"   Gusts: NA
Location:  33.7001°N, 97.0805°W
Report Text: KGLE 201015Z AUTO 34005KT 7SM OVC014 06/04 A3024 RMK AO2 T00550040
Loading
Personal Weather Stations






























Interactive Weather Map New forecast layout! Learn more

10-Day Weather Forecast

Advertisements
Track Severe Weather on mobile